Time,TemperatureF,DewpointF,PressureIn,WindDirection,WindDirectionDegrees,WindSpeedMPH,WindSpeedGustMPH,Humidity,HourlyPrecipIn,Conditions,Clouds,dailyrainin,SoftwareType,DateUTC
2013-03-05 00:00:00,65.2,63.1,29.76,South,181,11.2,18.2,93,0.00,,---,0.00,VWS V14.01,2013-03-05 06:00:00,
2013-03-05 00:05:00,65.2,63.1,29.76,SE,146,8.2,15.2,93,0.00,,---,0.00,VWS V14.01,2013-03-05 06:05:00,
2013-03-05 00:10:00,65.2,63.1,29.76,SSW,201,14.2,15.2,93,0.00,,---,0.00,VWS V14.01,2013-03-05 06:10:00,
2013-03-05 00:15:00,65.2,63.1,29.76,SSW,197,15.2,16.2,93,0.00,,---,0.00,VWS V14.01,2013-03-05 06:15:00,
2013-03-05 00:20:00,65.2,63.1,29.76,South,181,7.2,18.2,93,0.00,,---,0.00,VWS V14.01,2013-03-05 06:20:00,
2013-03-05 00:25:00,65.2,63.1,29.76,South,180,14.2,19.2,93,0.00,,---,0.00,VWS V14.01,2013-03-05 06:25:00,
2013-03-05 00:30:00,65.2,63.1,29.76,SSW,194,12.2,18.2,93,0.00,,---,0.00,VWS V14.01,2013-03-05 06:30:00,
2013-03-05 00:35:00,65.2,62.8,29.75,SSW,205,19.2,19.2,92,0.00,,---,0.00,VWS V14.01,2013-03-05 06:35:00,
2013-03-05 00:40:00,65.2,62.8,29.75,SSE,159,13.2,22.2,92,0.00,,---,0.00,VWS V14.01,2013-03-05 06:40:00,
2013-03-05 00:45:00,65.3,62.9,29.75,South,178,10.2,19.2,92,0.00,,---,0.00,VWS V14.01,2013-03-05 06:45:00,
2013-03-05 00:50:00,65.3,62.9,29.74,SSE,167,10.2,24.2,92,0.00,,---,0.00,VWS V14.01,2013-03-05 06:50:00,
2013-03-05 00:55:00,65.3,62.9,29.74,SSE,164,17.2,22.2,92,0.00,,---,0.00,VWS V14.01,2013-03-05 06:55:00,
2013-03-05 01:00:00,65.3,62.9,29.74,South,186,11.2,20.2,92,0.00,,---,0.00,VWS V14.01,2013-03-05 07:00:00,
2013-03-05 01:05:00,65.5,62.8,29.74,SSW,196,8.2,20.2,91,0.00,,---,0.00,VWS V14.01,2013-03-05 07:05:00,
2013-03-05 01:10:00,65.5,62.8,29.74,SSE,155,6.2,20.2,91,0.00,,---,0.00,VWS V14.01,2013-03-05 07:10:00,
2013-03-05 01:15:00,65.5,62.8,29.74,South,186,6.2,22.2,91,0.00,,---,0.00,VWS V14.01,2013-03-05 07:15:00,
2013-03-05 01:20:00,65.6,62.9,29.75,South,182,10.2,22.2,91,0.00,,---,0.00,VWS V14.01,2013-03-05 07:20:00,
2013-03-05 01:25:00,65.6,62.6,29.75,SSW,209,12.2,21.2,90,0.00,,---,0.00,VWS V14.01,2013-03-05 07:25:00,
2013-03-05 01:30:00,65.5,62.5,29.75,SSW,208,8.2,16.2,90,0.00,,---,0.00,VWS V14.01,2013-03-05 07:30:00,
2013-03-05 01:35:00,65.5,62.8,29.75,SSW,194,13.2,18.2,91,0.00,,---,0.00,VWS V14.01,2013-03-05 07:35:00,
2013-03-05 01:40:00,65.5,62.8,29.75,South,171,12.2,18.2,91,0.00,,---,0.00,VWS V14.01,2013-03-05 07:40:00,
2013-03-05 01:45:00,65.5,62.8,29.75,SSE,153,14.2,19.2,91,0.00,,---,0.00,VWS V14.01,2013-03-05 07:45:00,
2013-03-05 01:50:00,65.5,62.8,29.74,SSW,208,14.2,17.2,91,0.00,,---,0.00,VWS V14.01,2013-03-05 07:50:00,
2013-03-05 01:55:00,65.3,62.6,29.74,SSW,196,11.2,22.2,91,0.00,,---,0.00,VWS V14.01,2013-03-05 07:55:00,
2013-03-05 02:00:00,65.5,62.8,29.74,SE,145,9.2,19.2,91,0.00,,---,0.00,VWS V14.01,2013-03-05 08:00:00,
2013-03-05 02:05:00,65.3,62.6,29.75,SSE,157,6.2,17.2,91,0.00,,---,0.00,VWS V14.01,2013-03-05 08:05:00,
2013-03-05 02:10:00,65.3,62.6,29.75,South,173,12.2,17.2,91,0.00,,---,0.00,VWS V14.01,2013-03-05 08:10:00,
2013-03-05 02:15:00,65.3,62.6,29.75,South,175,13.2,19.2,91,0.00,,---,0.00,VWS V14.01,2013-03-05 08:15:00,
2013-03-05 02:20:00,65.3,62.6,29.75,SSW,203,8.2,19.2,91,0.00,,---,0.00,VWS V14.01,2013-03-05 08:20:00,
2013-03-05 02:25:00,65.2,62.5,29.75,South,181,12.2,14.2,91,0.00,,---,0.00,VWS V14.01,2013-03-05 08:25:00,
2013-03-05 02:30:00,65.2,62.5,29.75,South,186,7.2,17.2,91,0.00,,---,0.00,VWS V14.01,2013-03-05 08:30:00,
2013-03-05 02:35:00,65.3,62.6,29.75,SSE,168,6.2,19.2,91,0.00,,---,0.00,VWS V14.01,2013-03-05 08:35:00,
2013-03-05 02:40:00,65.3,62.3,29.75,South,170,14.2,15.2,90,0.00,,---,0.00,VWS V14.01,2013-03-05 08:40:00,
2013-03-05 02:45:00,65.3,62.3,29.75,SSW,196,10.2,16.2,90,0.00,,---,0.00,VWS V14.01,2013-03-05 08:45:00,
2013-03-05 02:50:00,65.2,62.2,29.75,SSE,167,12.2,17.2,90,0.00,,---,0.00,VWS V14.01,2013-03-05 08:50:00,
2013-03-05 02:55:00,65.2,62.2,29.75,South,184,7.2,17.2,90,0.00,,---,0.00,VWS V14.01,2013-03-05 08:55:00,
2013-03-05 03:00:00,65.2,62.2,29.75,South,190,7.2,16.2,90,0.00,,---,0.00,VWS V14.01,2013-03-05 09:00:00,
2013-03-05 03:05:00,65.2,62.2,29.75,South,188,11.2,15.2,90,0.00,,---,0.00,VWS V14.01,2013-03-05 09:05:00,
2013-03-05 03:10:00,65.2,62.2,29.75,South,177,5.2,18.2,90,0.00,,---,0.00,VWS V14.01,2013-03-05 09:10:00,
2013-03-05 03:15:00,65.2,62.2,29.75,SSW,207,7.2,15.2,90,0.00,,---,0.00,VWS V14.01,2013-03-05 09:15:00,
2013-03-05 03:20:00,65.2,62.2,29.75,South,180,9.2,20.2,90,0.00,,---,0.00,VWS V14.01,2013-03-05 09:20:00,
2013-03-05 03:25:00,65.2,61.2,29.75,South,191,6.2,14.2,87,0.00,,---,0.00,VWS V14.01,2013-03-05 09:25:00,
2013-03-05 03:30:00,65.0,62.0,29.75,SSW,199,7.2,15.2,90,0.00,,---,0.00,VWS V14.01,2013-03-05 09:30:00,
2013-03-05 03:35:00,65.2,62.2,29.75,SSE,163,8.2,18.2,90,0.00,,---,0.00,VWS V14.01,2013-03-05 09:35:00,
2013-03-05 03:40:00,65.0,62.0,29.75,SSW,205,10.2,21.2,90,0.00,,---,0.00,VWS V14.01,2013-03-05 09:40:00,
2013-03-05 03:45:00,65.2,62.2,29.75,SSE,166,9.2,15.2,90,0.00,,---,0.00,VWS V14.01,2013-03-05 09:45:00,
2013-03-05 03:50:00,65.0,62.0,29.74,SSE,159,10.2,16.2,90,0.00,,---,0.00,VWS V14.01,2013-03-05 09:50:00,
2013-03-05 03:55:00,65.0,62.0,29.74,SSE,157,13.2,18.2,90,0.00,,---,0.00,VWS V14.01,2013-03-05 09:55:00,
2013-03-05 04:00:00,65.0,62.0,29.74,SSW,198,10.2,16.2,90,0.00,,---,0.00,VWS V14.01,2013-03-05 10:00:00,
2013-03-05 04:05:00,64.8,62.1,29.75,South,173,14.2,15.2,91,0.00,,---,0.00,VWS V14.01,2013-03-05 10:05:00,
2013-03-05 04:10:00,64.8,62.1,29.75,South,171,8.2,14.2,91,0.00,,---,0.00,VWS V14.01,2013-03-05 10:10:00,
2013-03-05 04:15:00,64.8,62.1,29.75,SSW,193,8.2,15.2,91,0.00,,---,0.00,VWS V14.01,2013-03-05 10:15:00,
2013-03-05 04:20:00,64.8,62.1,29.75,SSW,200,14.2,19.2,91,0.00,,---,0.00,VWS V14.01,2013-03-05 10:20:00,
2013-03-05 04:25:00,64.8,62.1,29.75,South,182,11.2,21.2,91,0.00,,---,0.00,VWS V14.01,2013-03-05 10:25:00,
2013-03-05 04:30:00,64.7,62.0,29.75,SSE,157,8.2,16.2,91,0.00,,---,0.00,VWS V14.01,2013-03-05 10:30:00,
2013-03-05 04:35:00,64.7,62.0,29.75,SSE,157,10.2,13.2,91,0.00,,---,0.00,VWS V14.01,2013-03-05 10:35:00,
2013-03-05 04:40:00,64.7,62.0,29.75,South,178,8.2,14.2,91,0.00,,---,0.00,VWS V14.01,2013-03-05 10:40:00,
2013-03-05 04:45:00,64.7,62.3,29.75,SSW,198,8.2,15.2,92,0.00,,---,0.00,VWS V14.01,2013-03-05 10:45:00,
2013-03-05 04:50:00,64.5,62.1,29.76,South,177,4.2,14.2,92,0.00,,---,0.00,VWS V14.01,2013-03-05 10:50:00,
2013-03-05 04:55:00,64.5,62.1,29.76,South,171,8.2,14.2,92,0.00,,---,0.00,VWS V14.01,2013-03-05 10:55:00,
2013-03-05 05:00:00,64.5,62.1,29.76,SSE,157,14.2,16.2,92,0.00,,---,0.00,VWS V14.01,2013-03-05 11:00:00,
2013-03-05 05:05:00,64.5,61.8,29.76,SSE,168,5.2,15.2,91,0.00,,---,0.00,VWS V14.01,2013-03-05 11:05:00,
2013-03-05 05:10:00,64.5,62.1,29.76,SE,146,10.2,13.2,92,0.00,,---,0.00,VWS V14.01,2013-03-05 11:10:00,
2013-03-05 05:15:00,64.5,62.1,29.76,South,186,6.2,16.2,92,0.00,,---,0.00,VWS V14.01,2013-03-05 11:15:00,
2013-03-05 05:20:00,64.5,62.1,29.76,South,173,5.2,13.2,92,0.00,,---,0.00,VWS V14.01,2013-03-05 11:20:00,
2013-03-05 05:25:00,64.3,61.9,29.76,SSE,160,5.2,13.2,92,0.00,,---,0.00,VWS V14.01,2013-03-05 11:25:00,
2013-03-05 05:29:00,64.3,61.9,29.76,South,185,9.2,13.2,92,0.00,,---,0.00,VWS V14.01,2013-03-05 11:29:00,
2013-03-05 05:30:00,63.9,61.8,29.81,South,189,6.2,10.2,93,0.00,,---,0.00,VWS V14.01,2013-03-05 11:30:00,
2013-03-05 05:34:00,64.3,61.9,29.77,South,180,7.2,13.2,92,0.00,,---,0.00,VWS V14.01,2013-03-05 11:34:00,
2013-03-05 05:35:00,63.7,61.6,29.81,South,191,5.2,10.2,93,0.00,,---,0.00,VWS V14.01,2013-03-05 11:35:00,
2013-03-05 05:39:00,64.3,61.9,29.77,South,174,3.2,12.2,92,0.00,,---,0.00,VWS V14.01,2013-03-05 11:39:00,
2013-03-05 05:40:00,63.7,61.6,29.81,NW,314,13.2,13.2,93,0.00,,---,0.00,VWS V14.01,2013-03-05 11:40:00,
2013-03-05 05:45:00,64.3,61.9,29.77,South,175,5.2,12.2,92,0.00,,---,0.00,VWS V14.01,2013-03-05 11:45:00,
2013-03-05 05:50:00,64.2,61.8,29.78,South,178,10.2,11.2,92,0.00,,---,0.00,VWS V14.01,2013-03-05 11:50:00,
2013-03-05 05:55:00,64.2,61.8,29.78,SSW,192,7.2,13.2,92,0.00,,---,0.00,VWS V14.01,2013-03-05 11:55:00,
2013-03-05 06:00:00,64.2,61.8,29.78,SSW,211,7.2,11.2,92,0.00,,---,0.00,VWS V14.01,2013-03-05 12:00:00,
2013-03-05 06:05:00,64.0,61.6,29.79,SSW,194,3.2,11.2,92,0.00,,---,0.00,VWS V14.01,2013-03-05 12:05:00,
2013-03-05 06:10:00,64.0,61.6,29.79,SSW,192,4.2,11.2,92,0.00,,---,0.00,VWS V14.01,2013-03-05 12:10:00,
2013-03-05 06:15:00,64.0,61.6,29.79,SSW,192,6.2,13.2,92,0.00,,---,0.00,VWS V14.01,2013-03-05 12:15:00,
2013-03-05 06:20:00,63.9,61.8,29.80,SSW,192,3.2,12.2,93,0.00,,---,0.00,VWS V14.01,2013-03-05 12:20:00,
2013-03-05 06:25:00,63.9,61.8,29.80,South,173,6.2,11.2,93,0.00,,---,0.00,VWS V14.01,2013-03-05 12:25:00,
2013-03-05 06:30:00,63.9,61.8,29.80,SSW,193,5.2,10.2,93,0.00,,---,0.00,VWS V14.01,2013-03-05 12:30:00,
2013-03-05 06:35:00,63.7,61.6,29.81,South,190,3.2,10.2,93,0.00,,---,0.00,VWS V14.01,2013-03-05 12:35:00,
2013-03-05 06:40:00,63.7,61.6,29.81,SSW,204,5.2,5.2,93,0.00,,---,0.00,VWS V14.01,2013-03-05 12:40:00,
2013-03-05 06:45:00,63.4,61.3,29.81,NNW,328,22.2,22.2,93,0.00,,---,0.00,VWS V14.01,2013-03-05 12:45:00,
2013-03-05 06:50:00,64.0,62.2,29.91,WSW,256,7.2,21.2,94,0.00,,---,0.00,VWS V14.01,2013-03-05 12:50:00,
2013-03-05 06:54:00,64.3,61.6,29.91,NNW,339,10.2,18.2,91,0.00,,---,0.00,VWS V14.01,2013-03-05 12:54:00,
2013-03-05 06:55:00,64.7,61.4,29.95,NNW,342,6.2,13.2,89,0.00,,---,0.00,VWS V14.01,2013-03-05 12:55:00,
2013-03-05 06:59:00,64.5,61.5,29.91,North,360,5.2,14.2,90,0.00,,---,0.00,VWS V14.01,2013-03-05 12:59:00,
2013-03-05 07:00:00,64.8,61.5,29.96,North,5,7.2,13.2,89,0.00,,---,0.00,VWS V14.01,2013-03-05 13:00:00,
2013-03-05 07:04:00,64.7,61.4,29.93,NNW,344,7.2,19.2,89,0.00,,---,0.00,VWS V14.01,2013-03-05 13:04:00,
2013-03-05 07:05:00,65.0,61.7,29.96,NNE,26,6.2,11.2,89,0.00,,---,0.00,VWS V14.01,2013-03-05 13:05:00,
2013-03-05 07:09:00,64.7,61.1,29.93,NNW,344,12.2,15.2,88,0.00,,---,0.00,VWS V14.01,2013-03-05 13:09:00,
2013-03-05 07:10:00,65.3,61.7,29.96,NNE,19,11.2,13.2,88,0.00,,---,0.00,VWS V14.01,2013-03-05 13:10:00,
2013-03-05 07:14:00,64.7,61.4,29.93,NNW,329,3.2,12.2,89,0.00,,---,0.00,VWS V14.01,2013-03-05 13:14:00,
2013-03-05 07:15:00,65.6,61.6,29.96,NE,38,8.2,11.2,87,0.00,,---,0.00,VWS V14.01,2013-03-05 13:15:00,
2013-03-05 07:19:00,64.5,61.2,29.94,NNW,332,10.2,12.2,89,0.00,,---,0.00,VWS V14.01,2013-03-05 13:19:00,
2013-03-05 07:20:00,66.1,61.8,29.96,NNE,20,8.2,13.2,86,0.00,,---,0.00,VWS V14.01,2013-03-05 13:20:00,
2013-03-05 07:24:00,64.3,61.3,29.94,North,355,1.2,12.2,90,0.00,,---,0.00,VWS V14.01,2013-03-05 13:24:00,
2013-03-05 07:25:00,66.8,62.2,29.96,NNE,27,6.2,15.2,85,0.00,,---,0.00,VWS V14.01,2013-03-05 13:25:00,
2013-03-05 07:29:00,64.3,61.3,29.94,NE,38,4.2,11.2,90,0.00,,---,0.00,VWS V14.01,2013-03-05 13:29:00,
2013-03-05 07:30:00,67.3,62.3,29.98,NE,53,10.2,17.2,84,0.00,,---,0.00,VWS V14.01,2013-03-05 13:30:00,
2013-03-05 07:34:00,64.3,61.3,29.95,North,5,8.2,12.2,90,0.00,,---,0.00,VWS V14.01,2013-03-05 13:34:00,
2013-03-05 07:35:00,67.8,62.1,29.98,NE,46,6.2,14.2,82,0.00,,---,0.00,VWS V14.01,2013-03-05 13:35:00,
2013-03-05 07:39:00,64.5,61.5,29.95,NE,38,4.2,11.2,90,0.00,,---,0.00,VWS V14.01,2013-03-05 13:39:00,
2013-03-05 07:40:00,68.3,62.2,29.98,NE,37,15.2,16.2,81,0.00,,---,0.00,VWS V14.01,2013-03-05 13:40:00,
2013-03-05 07:44:00,64.5,61.2,29.95,NE,42,7.2,12.2,89,0.00,,---,0.00,VWS V14.01,2013-03-05 13:44:00,
2013-03-05 07:45:00,68.3,62.2,29.99,ENE,57,8.2,17.2,81,0.00,,---,0.00,VWS V14.01,2013-03-05 13:45:00,
2013-03-05 07:49:00,64.5,61.5,29.95,North,360,2.2,11.2,90,0.00,,---,0.00,VWS V14.01,2013-03-05 13:49:00,
2013-03-05 07:50:00,68.8,62.7,29.99,NNE,28,8.2,12.2,81,0.00,,---,0.00,VWS V14.01,2013-03-05 13:50:00,
2013-03-05 07:54:00,64.7,61.4,29.95,North,351,6.2,13.2,89,0.00,,---,0.00,VWS V14.01,2013-03-05 13:54:00,
2013-03-05 07:55:00,68.3,61.5,29.99,North,355,22.2,25.2,79,0.00,,---,0.00,VWS V14.01,2013-03-05 13:55:00,
2013-03-05 07:59:00,64.8,61.5,29.95,North,5,5.2,13.2,89,0.00,,---,0.00,VWS V14.01,2013-03-05 13:59:00,
2013-03-05 08:00:00,62.9,52.2,30.02,NNE,30,19.2,27.2,68,0.00,,---,0.00,VWS V14.01,2013-03-05 14:00:00,
2013-03-05 08:04:00,65.0,61.7,29.96,North,360,7.2,11.2,89,0.00,,---,0.00,VWS V14.01,2013-03-05 14:04:00,
2013-03-05 08:05:00,61.0,50.4,30.02,NNW,345,12.2,28.2,68,0.00,,---,0.00,VWS V14.01,2013-03-05 14:05:00,
2013-03-05 08:09:00,65.2,61.6,29.96,NNE,15,7.2,10.2,88,0.00,,---,0.00,VWS V14.01,2013-03-05 14:09:00,
2013-03-05 08:10:00,59.9,48.9,30.02,North,355,12.2,32.2,67,0.00,,---,0.00,VWS V14.01,2013-03-05 14:10:00,
2013-03-05 08:14:00,65.6,62.0,29.96,NE,44,10.2,11.2,88,0.00,,---,0.00,VWS V14.01,2013-03-05 14:14:00,
2013-03-05 08:15:00,59.3,48.4,30.04,North,355,14.2,28.2,67,0.00,,---,0.00,VWS V14.01,2013-03-05 14:15:00,
2013-03-05 08:19:00,66.0,62.0,29.96,NNE,32,13.2,13.2,87,0.00,,---,0.00,VWS V14.01,2013-03-05 14:19:00,
2013-03-05 08:20:00,59.2,47.9,30.04,North,355,13.2,26.2,66,0.00,,---,0.00,VWS V14.01,2013-03-05 14:20:00,
2013-03-05 08:24:00,66.6,62.3,29.96,NNE,14,8.2,15.2,86,0.00,,---,0.00,VWS V14.01,2013-03-05 14:24:00,
2013-03-05 08:25:00,58.9,47.2,30.04,North,355,22.2,31.2,65,0.00,,---,0.00,VWS V14.01,2013-03-05 14:25:00,
2013-03-05 08:29:00,67.1,62.1,29.96,NNE,26,5.2,17.2,84,0.00,,---,0.00,VWS V14.01,2013-03-05 14:29:00,
2013-03-05 08:30:00,58.7,47.0,30.06,North,355,25.2,26.2,65,0.00,,---,0.00,VWS V14.01,2013-03-05 14:30:00,
2013-03-05 08:34:00,67.6,62.3,29.98,NNE,20,5.2,14.2,83,0.00,,---,0.00,VWS V14.01,2013-03-05 14:34:00,
2013-03-05 08:35:00,58.4,46.3,30.06,North,360,13.2,35.2,64,0.00,,---,0.00,VWS V14.01,2013-03-05 14:35:00,
2013-03-05 08:39:00,68.1,62.1,29.98,NE,46,12.2,14.2,81,0.00,,---,0.00,VWS V14.01,2013-03-05 14:39:00,
2013-03-05 08:40:00,58.3,46.2,30.06,North,355,19.2,30.2,64,0.00,,---,0.00,VWS V14.01,2013-03-05 14:40:00,
2013-03-05 08:44:00,68.3,62.6,29.98,NE,50,14.2,17.2,82,0.00,,---,0.00,VWS V14.01,2013-03-05 14:44:00,
2013-03-05 08:45:00,58.0,45.5,30.07,NNE,28,22.2,34.2,63,0.00,,---,0.00,VWS V14.01,2013-03-05 14:45:00,
2013-03-05 08:49:00,68.6,62.5,29.99,NNE,15,7.2,12.2,81,0.00,,---,0.00,VWS V14.01,2013-03-05 14:49:00,
2013-03-05 08:50:00,58.0,45.5,30.07,NNE,18,16.2,26.2,63,0.00,,---,0.00,VWS V14.01,2013-03-05 14:50:00,
2013-03-05 08:54:00,69.1,62.7,29.99,NNE,12,14.2,15.2,80,0.00,,---,0.00,VWS V14.01,2013-03-05 14:54:00,
2013-03-05 08:55:00,57.8,44.9,30.07,NNE,22,14.2,29.2,62,0.00,,---,0.00,VWS V14.01,2013-03-05 14:55:00,
2013-03-05 08:59:00,64.0,53.2,29.99,North,360,12.2,26.2,68,0.00,,---,0.00,VWS V14.01,2013-03-05 14:59:00,
2013-03-05 09:00:00,58.0,45.5,30.07,NNE,29,15.2,29.2,63,0.00,,---,0.00,VWS V14.01,2013-03-05 15:00:00,
2013-03-05 09:04:00,61.5,50.8,30.02,North,5,10.2,23.2,68,0.00,,---,0.00,VWS V14.01,2013-03-05 15:04:00,
2013-03-05 09:05:00,58.0,45.1,30.07,North,9,14.2,30.2,62,0.00,,---,0.00,VWS V14.01,2013-03-05 15:05:00,
2013-03-05 09:09:00,60.2,49.6,30.02,NW,325,18.2,32.2,68,0.00,,---,0.00,VWS V14.01,2013-03-05 15:09:00,
2013-03-05 09:10:00,58.1,45.2,30.07,NNW,342,20.2,24.2,62,0.00,,---,0.00,VWS V14.01,2013-03-05 15:10:00,
2013-03-05 09:14:00,59.5,48.5,30.02,NE,35,20.2,28.2,67,0.00,,---,0.00,VWS V14.01,2013-03-05 15:14:00,
2013-03-05 09:15:00,58.0,45.1,30.08,North,360,24.2,25.2,62,0.00,,---,0.00,VWS V14.01,2013-03-05 15:15:00,
2013-03-05 09:19:00,59.2,47.9,30.04,NE,34,10.2,26.2,66,0.00,,---,0.00,VWS V14.01,2013-03-05 15:19:00,
2013-03-05 09:20:00,58.0,45.5,30.08,NNE,23,8.2,24.2,63,0.00,,---,0.00,VWS V14.01,2013-03-05 15:20:00,
2013-03-05 09:24:00,59.0,47.7,30.04,NNE,24,18.2,31.2,66,0.00,,---,0.00,VWS V14.01,2013-03-05 15:24:00,
2013-03-05 09:25:00,58.0,45.5,30.08,NNE,13,9.2,21.2,63,0.00,,---,0.00,VWS V14.01,2013-03-05 15:25:00,
2013-03-05 09:29:00,58.7,47.0,30.04,North,5,15.2,26.2,65,0.00,,---,0.00,VWS V14.01,2013-03-05 15:29:00,
2013-03-05 09:30:00,58.1,45.6,30.10,North,11,15.2,19.2,63,0.00,,---,0.00,VWS V14.01,2013-03-05 15:30:00,
2013-03-05 09:34:00,58.4,46.3,30.06,NE,38,19.2,35.2,64,0.00,,---,0.00,VWS V14.01,2013-03-05 15:34:00,
2013-03-05 09:35:00,58.1,44.7,30.10,NNW,344,13.2,21.2,61,0.00,,---,0.00,VWS V14.01,2013-03-05 15:35:00,
2013-03-05 09:39:00,58.3,46.6,30.06,NNE,16,16.2,26.2,65,0.00,,---,0.00,VWS V14.01,2013-03-05 15:39:00,
2013-03-05 09:40:00,58.3,45.3,30.10,NNE,22,19.2,22.2,62,0.00,,---,0.00,VWS V14.01,2013-03-05 15:40:00,
2013-03-05 09:44:00,58.1,45.6,30.06,NNW,346,14.2,34.2,63,0.00,,---,0.00,VWS V14.01,2013-03-05 15:44:00,
2013-03-05 09:45:00,58.3,44.9,30.10,North,5,10.2,22.2,61,0.00,,---,0.00,VWS V14.01,2013-03-05 15:45:00,
2013-03-05 09:49:00,58.0,45.5,30.07,NNW,336,18.2,26.2,63,0.00,,---,0.00,VWS V14.01,2013-03-05 15:49:00,
2013-03-05 09:50:00,58.7,45.3,30.10,NNE,18,13.2,24.2,61,0.00,,---,0.00,VWS V14.01,2013-03-05 15:50:00,
2013-03-05 09:54:00,58.0,45.5,30.07,NNE,31,14.2,29.2,63,0.00,,---,0.00,VWS V14.01,2013-03-05 15:54:00,
2013-03-05 09:55:00,58.9,45.1,30.10,North,350,11.2,22.2,60,0.00,,---,0.00,VWS V14.01,2013-03-05 15:55:00,
2013-03-05 09:59:00,57.8,45.3,30.07,North,360,16.2,29.2,63,0.00,,---,0.00,VWS V14.01,2013-03-05 15:59:00,
2013-03-05 10:00:00,58.9,45.5,30.11,NNW,343,12.2,24.2,61,0.00,,---,0.00,VWS V14.01,2013-03-05 16:00:00,
2013-03-05 10:04:00,58.0,45.5,30.07,NE,36,16.2,30.2,63,0.00,,---,0.00,VWS V14.01,2013-03-05 16:04:00,
2013-03-05 10:05:00,59.2,45.3,30.11,NNE,30,10.2,23.2,60,0.00,,---,0.00,VWS V14.01,2013-03-05 16:05:00,
2013-03-05 10:09:00,58.0,45.1,30.07,North,360,8.2,24.2,62,0.00,,---,0.00,VWS V14.01,2013-03-05 16:09:00,
2013-03-05 10:10:00,59.5,45.6,30.11,North,10,10.2,23.2,60,0.00,,---,0.00,VWS V14.01,2013-03-05 16:10:00,
2013-03-05 10:14:00,58.1,45.2,30.07,North,355,20.2,25.2,62,0.00,,---,0.00,VWS V14.01,2013-03-05 16:14:00,
2013-03-05 10:15:00,59.9,44.7,30.12,North,349,19.2,24.2,57,0.00,,---,0.00,VWS V14.01,2013-03-05 16:15:00,
2013-03-05 10:19:00,58.0,45.1,30.08,NNW,344,11.2,24.2,62,0.00,,---,0.00,VWS V14.01,2013-03-05 16:19:00,
2013-03-05 10:20:00,59.9,44.2,30.12,NNE,17,13.2,22.2,56,0.00,,---,0.00,VWS V14.01,2013-03-05 16:20:00,
2013-03-05 10:24:00,58.0,45.1,30.08,North,360,14.2,21.2,62,0.00,,---,0.00,VWS V14.01,2013-03-05 16:24:00,
2013-03-05 10:25:00,59.9,44.7,30.12,North,5,14.2,20.2,57,0.00,,---,0.00,VWS V14.01,2013-03-05 16:25:00,
2013-03-05 10:29:00,58.0,45.5,30.08,North,360,11.2,19.2,63,0.00,,---,0.00,VWS V14.01,2013-03-05 16:29:00,
2013-03-05 10:30:00,60.2,44.5,30.12,North,5,14.2,20.2,56,0.00,,---,0.00,VWS V14.01,2013-03-05 16:30:00,
2013-03-05 10:34:00,58.1,45.2,30.10,NW,322,16.2,21.2,62,0.00,,---,0.00,VWS V14.01,2013-03-05 16:34:00,
2013-03-05 10:35:00,60.7,44.9,30.12,NNW,342,12.2,22.2,56,0.00,,---,0.00,VWS V14.01,2013-03-05 16:35:00,
2013-03-05 10:39:00,58.3,45.8,30.10,North,5,17.2,19.2,63,0.00,,---,0.00,VWS V14.01,2013-03-05 16:39:00,
2013-03-05 10:40:00,61.5,44.7,30.12,North,355,16.2,21.2,54,0.00,,---,0.00,VWS V14.01,2013-03-05 16:40:00,
2013-03-05 10:44:00,58.3,44.9,30.10,NNW,344,14.2,22.2,61,0.00,,---,0.00,VWS V14.01,2013-03-05 16:44:00,
2013-03-05 10:45:00,62.1,45.3,30.12,NW,307,12.2,20.2,54,0.00,,---,0.00,VWS V14.01,2013-03-05 16:45:00,
2013-03-05 10:49:00,58.6,45.2,30.10,NNE,15,7.2,24.2,61,0.00,,---,0.00,VWS V14.01,2013-03-05 16:49:00,
2013-03-05 10:50:00,62.1,43.8,30.12,North,360,16.2,25.2,51,0.00,,---,0.00,VWS V14.01,2013-03-05 16:50:00,
2013-03-05 10:54:00,58.9,45.5,30.10,North,9,13.2,22.2,61,0.00,,---,0.00,VWS V14.01,2013-03-05 16:54:00,
2013-03-05 10:55:00,62.4,45.1,30.12,NE,36,16.2,21.2,53,0.00,,---,0.00,VWS V14.01,2013-03-05 16:55:00,
2013-03-05 10:59:00,58.9,45.5,30.10,North,350,10.2,24.2,61,0.00,,---,0.00,VWS V14.01,2013-03-05 16:59:00,
2013-03-05 11:00:00,62.7,44.3,30.13,North,360,12.2,22.2,51,0.00,,---,0.00,VWS V14.01,2013-03-05 17:00:00,
2013-03-05 11:04:00,59.0,45.2,30.11,North,360,10.2,23.2,60,0.00,,---,0.00,VWS V14.01,2013-03-05 17:04:00,
2013-03-05 11:05:00,62.9,44.5,30.13,NNE,28,12.2,22.2,51,0.00,,---,0.00,VWS V14.01,2013-03-05 17:05:00,
2013-03-05 11:09:00,59.3,45.4,30.11,North,5,10.2,23.2,60,0.00,,---,0.00,VWS V14.01,2013-03-05 17:09:00,
2013-03-05 11:10:00,63.4,45.0,30.13,North,5,8.2,20.2,51,0.00,,---,0.00,VWS V14.01,2013-03-05 17:10:00,
2013-03-05 11:14:00,59.8,45.0,30.11,NNE,33,11.2,22.2,58,0.00,,---,0.00,VWS V14.01,2013-03-05 17:14:00,
2013-03-05 11:15:00,63.5,45.1,30.13,NNE,14,11.2,23.2,51,0.00,,---,0.00,VWS V14.01,2013-03-05 17:15:00,
2013-03-05 11:19:00,60.1,44.8,30.12,North,355,12.2,22.2,57,0.00,,---,0.00,VWS V14.01,2013-03-05 17:19:00,
2013-03-05 11:20:00,63.7,44.7,30.13,NNW,336,13.2,22.2,50,0.00,,---,0.00,VWS V14.01,2013-03-05 17:20:00,
2013-03-05 11:24:00,59.9,44.7,30.12,NNW,333,11.2,20.2,57,0.00,,---,0.00,VWS V14.01,2013-03-05 17:24:00,
2013-03-05 11:25:00,63.9,44.4,30.13,North,11,10.2,21.2,49,0.00,,---,0.00,VWS V14.01,2013-03-05 17:25:00,
2013-03-05 11:29:00,60.1,44.8,30.12,North,360,10.2,19.2,57,0.00,,---,0.00,VWS V14.01,2013-03-05 17:29:00,
2013-03-05 11:30:00,64.2,44.7,30.13,NNE,23,20.2,21.2,49,0.00,,---,0.00,VWS V14.01,2013-03-05 17:30:00,
2013-03-05 11:34:00,60.5,44.7,30.12,North,355,11.2,22.2,56,0.00,,---,0.00,VWS V14.01,2013-03-05 17:34:00,
2013-03-05 11:35:00,64.5,44.9,30.13,North,11,12.2,25.2,49,0.00,,---,0.00,VWS V14.01,2013-03-05 17:35:00,
2013-03-05 11:39:00,61.3,45.0,30.12,NNE,26,16.2,21.2,55,0.00,,---,0.00,VWS V14.01,2013-03-05 17:39:00,
2013-03-05 11:40:00,64.7,44.0,30.13,NE,42,11.2,22.2,47,0.00,,---,0.00,VWS V14.01,2013-03-05 17:40:00,
2013-03-05 11:44:00,61.8,45.0,30.12,North,355,11.2,20.2,54,0.00,,---,0.00,VWS V14.01,2013-03-05 17:44:00,
2013-03-05 11:45:00,65.2,43.9,30.13,North,355,10.2,21.2,46,0.00,,---,0.00,VWS V14.01,2013-03-05 17:45:00,
2013-03-05 11:49:00,62.3,46.4,30.12,NNW,348,7.2,22.2,56,0.00,,---,0.00,VWS V14.01,2013-03-05 17:49:00,
2013-03-05 11:50:00,65.3,44.0,30.13,North,350,14.2,17.2,46,0.00,,---,0.00,VWS V14.01,2013-03-05 17:50:00,
2013-03-05 11:54:00,62.3,44.5,30.12,North,5,10.2,21.2,52,0.00,,---,0.00,VWS V14.01,2013-03-05 17:54:00,
2013-03-05 11:55:00,65.3,45.1,30.13,NNE,12,12.2,19.2,48,0.00,,---,0.00,VWS V14.01,2013-03-05 17:55:00,
2013-03-05 11:59:00,62.6,44.8,30.12,North,5,12.2,22.2,52,0.00,,---,0.00,VWS V14.01,2013-03-05 17:59:00,
2013-03-05 12:00:00,65.8,45.6,30.13,North,5,11.2,20.2,48,0.00,,---,0.00,VWS V14.01,2013-03-05 18:00:00,
2013-03-05 12:04:00,62.9,44.5,30.13,NNE,28,7.2,22.2,51,0.00,,---,0.00,VWS V14.01,2013-03-05 18:04:00,
2013-03-05 12:05:00,66.3,45.5,30.13,North,5,7.2,14.2,47,0.00,,---,0.00,VWS V14.01,2013-03-05 18:05:00,
2013-03-05 12:09:00,63.2,45.3,30.13,NNW,343,10.2,16.2,52,0.00,,---,0.00,VWS V14.01,2013-03-05 18:09:00,
2013-03-05 12:10:00,66.3,46.0,30.13,North,5,10.2,19.2,48,0.00,,---,0.00,VWS V14.01,2013-03-05 18:10:00,
2013-03-05 12:14:00,63.4,44.5,30.13,North,9,10.2,23.2,50,0.00,,---,0.00,VWS V14.01,2013-03-05 18:14:00,
2013-03-05 12:15:00,66.9,44.9,30.13,NNE,14,17.2,18.2,45,0.00,,---,0.00,VWS V14.01,2013-03-05 18:15:00,
2013-03-05 12:19:00,63.7,44.7,30.13,North,5,8.2,22.2,50,0.00,,---,0.00,VWS V14.01,2013-03-05 18:19:00,
2013-03-05 12:20:00,67.8,43.9,30.13,North,360,10.2,21.2,42,0.00,,---,0.00,VWS V14.01,2013-03-05 18:20:00,
2013-03-05 12:24:00,63.9,44.9,30.13,NNW,347,7.2,21.2,50,0.00,,---,0.00,VWS V14.01,2013-03-05 18:24:00,
2013-03-05 12:25:00,68.3,43.7,30.13,NNW,346,13.2,21.2,41,0.00,,---,0.00,VWS V14.01,2013-03-05 18:25:00,
2013-03-05 12:29:00,64.2,44.7,30.13,NNW,330,14.2,18.2,49,0.00,,---,0.00,VWS V14.01,2013-03-05 18:29:00,
2013-03-05 12:30:00,68.6,43.3,30.13,North,5,10.2,25.2,40,0.00,,---,0.00,VWS V14.01,2013-03-05 18:30:00,
2013-03-05 12:34:00,64.3,44.8,30.13,North,5,10.2,25.2,49,0.00,,---,0.00,VWS V14.01,2013-03-05 18:34:00,
2013-03-05 12:35:00,68.9,42.3,30.13,NW,324,10.2,25.2,38,0.00,,---,0.00,VWS V14.01,2013-03-05 18:35:00,
2013-03-05 12:39:00,64.7,44.0,30.13,North,360,15.2,19.2,47,0.00,,---,0.00,VWS V14.01,2013-03-05 18:39:00,
2013-03-05 12:40:00,69.1,43.8,30.13,NNW,336,13.2,20.2,40,0.00,,---,0.00,VWS V14.01,2013-03-05 18:40:00,
2013-03-05 12:44:00,65.0,44.3,30.13,North,360,16.2,21.2,47,0.00,,---,0.00,VWS V14.01,2013-03-05 18:44:00,
2013-03-05 12:45:00,68.9,43.0,30.13,NNW,333,19.2,20.2,39,0.00,,---,0.00,VWS V14.01,2013-03-05 18:45:00,
2013-03-05 12:49:00,65.2,43.3,30.13,NNW,345,8.2,17.2,45,0.00,,---,0.00,VWS V14.01,2013-03-05 18:49:00,
2013-03-05 12:50:00,68.4,43.2,30.13,North,349,15.2,23.2,40,0.00,,---,0.00,VWS V14.01,2013-03-05 18:50:00,
2013-03-05 12:54:00,65.2,45.0,30.13,NNE,22,6.2,19.2,48,0.00,,---,0.00,VWS V14.01,2013-03-05 18:54:00,
2013-03-05 12:55:00,68.9,41.6,30.13,North,355,18.2,22.2,37,0.00,,---,0.00,VWS V14.01,2013-03-05 18:55:00,
2013-03-05 12:59:00,65.6,45.4,30.13,North,360,19.2,20.2,48,0.00,,---,0.00,VWS V14.01,2013-03-05 18:59:00,
2013-03-05 13:00:00,69.4,42.7,30.13,NNE,28,10.2,21.2,38,0.00,,---,0.00,VWS V14.01,2013-03-05 19:00:00,
2013-03-05 13:04:00,66.0,45.8,30.13,WNW,298,5.2,14.2,48,0.00,,---,0.00,VWS V14.01,2013-03-05 19:04:00,
2013-03-05 13:05:00,69.3,44.0,30.13,NNE,14,8.2,19.2,40,0.00,,---,0.00,VWS V14.01,2013-03-05 19:05:00,
2013-03-05 13:09:00,66.4,45.0,30.13,North,355,8.2,19.2,46,0.00,,---,0.00,VWS V14.01,2013-03-05 19:09:00,
2013-03-05 13:10:00,68.9,42.3,30.13,North,5,7.2,20.2,38,0.00,,---,0.00,VWS V14.01,2013-03-05 19:10:00,
2013-03-05 13:14:00,66.4,45.0,30.13,North,360,13.2,14.2,46,0.00,,---,0.00,VWS V14.01,2013-03-05 19:14:00,
2013-03-05 13:15:00,69.3,42.6,30.13,NNE,13,14.2,19.2,38,0.00,,---,0.00,VWS V14.01,2013-03-05 19:15:00,
2013-03-05 13:19:00,67.6,43.7,30.13,NNW,329,10.2,21.2,42,0.00,,---,0.00,VWS V14.01,2013-03-05 19:19:00,
2013-03-05 13:20:00,69.6,42.2,30.13,North,355,8.2,15.2,37,0.00,,---,0.00,VWS V14.01,2013-03-05 19:20:00,
2013-03-05 13:24:00,68.1,44.2,30.13,North,360,8.2,21.2,42,0.00,,---,0.00,VWS V14.01,2013-03-05 19:24:00,
2013-03-05 13:25:00,69.6,42.9,30.13,North,5,10.2,20.2,38,0.00,,---,0.00,VWS V14.01,2013-03-05 19:25:00,
2013-03-05 13:29:00,68.8,43.5,30.13,North,360,17.2,25.2,40,0.00,,---,0.00,VWS V14.01,2013-03-05 19:29:00,
2013-03-05 13:30:00,69.4,42.0,30.13,NNW,336,10.2,21.2,37,0.00,,---,0.00,VWS V14.01,2013-03-05 19:30:00,
2013-03-05 13:34:00,68.8,42.9,30.13,North,355,12.2,20.2,39,0.00,,---,0.00,VWS V14.01,2013-03-05 19:34:00,
2013-03-05 13:35:00,69.3,40.5,30.13,NNE,19,12.2,20.2,35,0.00,,---,0.00,VWS V14.01,2013-03-05 19:35:00,
2013-03-05 13:39:00,68.8,42.2,30.13,NNW,339,17.2,20.2,38,0.00,,---,0.00,VWS V14.01,2013-03-05 19:39:00,
2013-03-05 13:40:00,68.8,40.8,30.13,North,355,13.2,24.2,36,0.00,,---,0.00,VWS V14.01,2013-03-05 19:40:00,
2013-03-05 13:44:00,69.1,44.4,30.13,NNW,340,17.2,20.2,41,0.00,,---,0.00,VWS V14.01,2013-03-05 19:44:00,
2013-03-05 13:45:00,69.3,40.5,30.13,NNW,346,11.2,19.2,35,0.00,,---,0.00,VWS V14.01,2013-03-05 19:45:00,
2013-03-05 13:49:00,68.6,42.7,30.13,North,9,12.2,22.2,39,0.00,,---,0.00,VWS V14.01,2013-03-05 19:49:00,
2013-03-05 13:50:00,69.4,41.3,30.13,North,9,10.2,20.2,36,0.00,,---,0.00,VWS V14.01,2013-03-05 19:50:00,
2013-03-05 13:54:00,68.8,42.2,30.13,North,349,16.2,22.2,38,0.00,,---,0.00,VWS V14.01,2013-03-05 19:54:00,
2013-03-05 13:55:00,69.1,40.3,30.13,North,355,24.2,24.2,35,0.00,,---,0.00,VWS V14.01,2013-03-05 19:55:00,
2013-03-05 13:59:00,69.3,41.9,30.13,NNW,342,13.2,21.2,37,0.00,,---,0.00,VWS V14.01,2013-03-05 19:59:00,
2013-03-05 14:00:00,69.1,41.8,30.12,NNW,346,12.2,24.2,37,0.00,,---,0.00,VWS V14.01,2013-03-05 20:00:00,
2013-03-05 14:04:00,69.1,43.1,30.13,North,9,7.2,18.2,39,0.00,,---,0.00,VWS V14.01,2013-03-05 20:04:00,
2013-03-05 14:05:00,69.4,39.1,30.12,North,360,14.2,19.2,33,0.00,,---,0.00,VWS V14.01,2013-03-05 20:05:00,
2013-03-05 14:09:00,69.1,43.8,30.13,North,5,19.2,19.2,40,0.00,,---,0.00,VWS V14.01,2013-03-05 20:09:00,
2013-03-05 14:10:00,69.1,38.0,30.12,NNW,339,8.2,20.2,32,0.00,,---,0.00,VWS V14.01,2013-03-05 20:10:00,
2013-03-05 14:14:00,69.1,41.0,30.13,NNW,342,12.2,19.2,36,0.00,,---,0.00,VWS V14.01,2013-03-05 20:14:00,
2013-03-05 14:15:00,69.6,40.0,30.12,NNW,336,14.2,17.2,34,0.00,,---,0.00,VWS V14.01,2013-03-05 20:15:00,
2013-03-05 14:19:00,69.3,41.9,30.13,NNE,17,10.2,15.2,37,0.00,,---,0.00,VWS V14.01,2013-03-05 20:19:00,
2013-03-05 14:20:00,68.4,42.5,30.12,NE,37,13.2,20.2,39,0.00,,---,0.00,VWS V14.01,2013-03-05 20:20:00,
2013-03-05 14:24:00,69.6,42.9,30.13,North,360,14.2,20.2,38,0.00,,---,0.00,VWS V14.01,2013-03-05 20:24:00,
2013-03-05 14:25:00,68.1,38.7,30.12,North,355,13.2,21.2,34,0.00,,---,0.00,VWS V14.01,2013-03-05 20:25:00,
2013-03-05 14:29:00,69.6,42.9,30.13,North,360,16.2,20.2,38,0.00,,---,0.00,VWS V14.01,2013-03-05 20:29:00,
2013-03-05 14:30:00,67.8,39.2,30.13,NE,44,12.2,17.2,35,0.00,,---,0.00,VWS V14.01,2013-03-05 20:30:00,
2013-03-05 14:34:00,69.3,41.9,30.13,North,355,13.2,19.2,37,0.00,,---,0.00,VWS V14.01,2013-03-05 20:34:00,
2013-03-05 14:35:00,67.9,37.8,30.13,NNE,23,8.2,19.2,33,0.00,,---,0.00,VWS V14.01,2013-03-05 20:35:00,
2013-03-05 14:39:00,68.8,40.8,30.13,North,360,16.2,24.2,36,0.00,,---,0.00,VWS V14.01,2013-03-05 20:39:00,
2013-03-05 14:40:00,67.8,39.9,30.13,NNW,348,8.2,18.2,36,0.00,,---,0.00,VWS V14.01,2013-03-05 20:40:00,
2013-03-05 14:44:00,68.9,39.4,30.13,NNW,337,8.2,19.2,34,0.00,,---,0.00,VWS V14.01,2013-03-05 20:44:00,
2013-03-05 14:45:00,67.9,38.5,30.13,NNW,338,7.2,14.2,34,0.00,,---,0.00,VWS V14.01,2013-03-05 20:45:00,
2013-03-05 14:49:00,69.4,39.8,30.13,NNW,348,15.2,20.2,34,0.00,,---,0.00,VWS V14.01,2013-03-05 20:49:00,
2013-03-05 14:50:00,67.8,39.2,30.13,NNW,348,11.2,20.2,35,0.00,,---,0.00,VWS V14.01,2013-03-05 20:50:00,
2013-03-05 14:54:00,69.4,39.8,30.13,NNW,348,13.2,21.2,34,0.00,,---,0.00,VWS V14.01,2013-03-05 20:54:00,
2013-03-05 14:55:00,67.4,40.2,30.13,North,9,13.2,18.2,37,0.00,,---,0.00,VWS V14.01,2013-03-05 20:55:00,
2013-03-05 14:59:00,69.1,41.8,30.13,North,355,12.2,24.2,37,0.00,,---,0.00,VWS V14.01,2013-03-05 20:59:00,
2013-03-05 15:00:00,67.6,38.3,30.13,NNW,342,8.2,18.2,34,0.00,,---,0.00,VWS V14.01,2013-03-05 21:00:00,
2013-03-05 15:04:00,69.3,40.5,30.13,NNW,328,13.2,19.2,35,0.00,,---,0.00,VWS V14.01,2013-03-05 21:04:00,
2013-03-05 15:05:00,67.4,37.3,30.13,NNW,335,7.2,19.2,33,0.00,,---,0.00,VWS V14.01,2013-03-05 21:05:00,
2013-03-05 15:09:00,69.1,37.2,30.13,North,360,15.2,20.2,31,0.00,,---,0.00,VWS V14.01,2013-03-05 21:09:00,
2013-03-05 15:10:00,67.4,37.3,30.13,NE,46,7.2,17.2,33,0.00,,---,0.00,VWS V14.01,2013-03-05 21:10:00,
2013-03-05 15:14:00,69.6,38.5,30.13,NNE,23,7.2,15.2,32,0.00,,---,0.00,VWS V14.01,2013-03-05 21:14:00,
2013-03-05 15:15:00,67.4,36.5,30.13,NNE,18,6.2,18.2,32,0.00,,---,0.00,VWS V14.01,2013-03-05 21:15:00,
2013-03-05 15:19:00,68.9,41.6,30.12,NNW,348,8.2,20.2,37,0.00,,---,0.00,VWS V14.01,2013-03-05 21:19:00,
2013-03-05 15:20:00,67.3,36.5,30.13,NNW,345,9.2,17.2,32,0.00,,---,0.00,VWS V14.01,2013-03-05 21:20:00,
2013-03-05 15:24:00,68.3,40.3,30.12,North,355,18.2,19.2,36,0.00,,---,0.00,VWS V14.01,2013-03-05 21:24:00,
2013-03-05 15:25:00,67.3,34.8,30.13,North,355,7.2,20.2,30,0.00,,---,0.00,VWS V14.01,2013-03-05 21:25:00,
2013-03-05 15:29:00,67.9,39.3,30.12,North,5,15.2,17.2,35,0.00,,---,0.00,VWS V14.01,2013-03-05 21:29:00,
2013-03-05 15:30:00,67.1,36.3,30.13,NNE,32,11.2,19.2,32,0.00,,---,0.00,VWS V14.01,2013-03-05 21:30:00,
2013-03-05 15:34:00,67.9,38.5,30.13,North,360,8.2,17.2,34,0.00,,---,0.00,VWS V14.01,2013-03-05 21:34:00,
2013-03-05 15:35:00,67.1,34.7,30.13,North,355,10.2,17.2,30,0.00,,---,0.00,VWS V14.01,2013-03-05 21:35:00,
2013-03-05 15:39:00,67.9,37.8,30.13,North,11,12.2,18.2,33,0.00,,---,0.00,VWS V14.01,2013-03-05 21:39:00,
2013-03-05 15:40:00,67.3,34.8,30.13,NNW,344,7.2,16.2,30,0.00,,---,0.00,VWS V14.01,2013-03-05 21:40:00,
2013-03-05 15:44:00,67.9,40.7,30.13,North,355,12.2,13.2,37,0.00,,---,0.00,VWS V14.01,2013-03-05 21:44:00,
2013-03-05 15:45:00,67.3,36.5,30.14,NNW,347,7.2,13.2,32,0.00,,---,0.00,VWS V14.01,2013-03-05 21:45:00,
2013-03-05 15:49:00,67.9,40.0,30.13,NNW,348,6.2,16.2,36,0.00,,---,0.00,VWS V14.01,2013-03-05 21:49:00,
2013-03-05 15:50:00,67.4,37.3,30.14,North,350,4.2,11.2,33,0.00,,---,0.00,VWS V14.01,2013-03-05 21:50:00,
2013-03-05 15:54:00,67.6,39.0,30.13,North,350,12.2,17.2,35,0.00,,---,0.00,VWS V14.01,2013-03-05 21:54:00,
2013-03-05 15:55:00,67.4,35.7,30.14,NNW,342,9.2,15.2,31,0.00,,---,0.00,VWS V14.01,2013-03-05 21:55:00,
2013-03-05 15:59:00,67.4,39.5,30.13,North,360,8.2,13.2,36,0.00,,---,0.00,VWS V14.01,2013-03-05 21:59:00,
2013-03-05 16:00:00,67.4,38.1,30.14,North,350,11.2,15.2,34,0.00,,---,0.00,VWS V14.01,2013-03-05 22:00:00,
2013-03-05 16:04:00,67.4,38.1,30.13,North,9,14.2,18.2,34,0.00,,---,0.00,VWS V14.01,2013-03-05 22:04:00,
2013-03-05 16:05:00,67.4,39.5,30.14,North,355,6.2,14.2,36,0.00,,---,0.00,VWS V14.01,2013-03-05 22:05:00,
2013-03-05 16:09:00,67.4,38.8,30.13,NNW,338,16.2,16.2,35,0.00,,---,0.00,VWS V14.01,2013-03-05 22:09:00,
2013-03-05 16:10:00,67.6,39.7,30.14,NNW,333,7.2,14.2,36,0.00,,---,0.00,VWS V14.01,2013-03-05 22:10:00,
2013-03-05 16:14:00,67.4,37.3,30.13,North,360,14.2,15.2,33,0.00,,---,0.00,VWS V14.01,2013-03-05 22:14:00,
2013-03-05 16:15:00,67.6,38.3,30.15,NNW,331,10.2,14.2,34,0.00,,---,0.00,VWS V14.01,2013-03-05 22:15:00,
2013-03-05 16:19:00,67.3,36.5,30.13,North,355,12.2,17.2,32,0.00,,---,0.00,VWS V14.01,2013-03-05 22:19:00,
2013-03-05 16:20:00,67.9,35.3,30.15,NNE,22,12.2,14.2,30,0.00,,---,0.00,VWS V14.01,2013-03-05 22:20:00,
2013-03-05 16:24:00,67.3,35.7,30.13,NNE,16,11.2,20.2,31,0.00,,---,0.00,VWS V14.01,2013-03-05 22:24:00,
2013-03-05 16:25:00,68.1,35.5,30.15,NNW,346,11.2,18.2,30,0.00,,---,0.00,VWS V14.01,2013-03-05 22:25:00,
2013-03-05 16:29:00,67.3,35.7,30.13,NNE,15,17.2,19.2,31,0.00,,---,0.00,VWS V14.01,2013-03-05 22:29:00,
2013-03-05 16:30:00,67.8,36.1,30.15,NE,34,11.2,13.2,31,0.00,,---,0.00,VWS V14.01,2013-03-05 22:30:00,
2013-03-05 16:34:00,67.1,35.5,30.13,NNE,32,8.2,17.2,31,0.00,,---,0.00,VWS V14.01,2013-03-05 22:34:00,
2013-03-05 16:35:00,67.4,35.7,30.15,North,355,10.2,14.2,31,0.00,,---,0.00,VWS V14.01,2013-03-05 22:35:00,
2013-03-05 16:39:00,67.3,34.0,30.13,North,5,16.2,16.2,29,0.00,,---,0.00,VWS V14.01,2013-03-05 22:39:00,
2013-03-05 16:40:00,67.3,36.5,30.15,North,349,6.2,13.2,32,0.00,,---,0.00,VWS V14.01,2013-03-05 22:40:00,
2013-03-05 16:44:00,67.3,35.7,30.13,NNE,17,11.2,13.2,31,0.00,,---,0.00,VWS V14.01,2013-03-05 22:44:00,
2013-03-05 16:45:00,66.9,36.9,30.15,North,355,7.2,14.2,33,0.00,,---,0.00,VWS V14.01,2013-03-05 22:45:00,
2013-03-05 16:49:00,67.4,36.5,30.14,North,355,8.2,10.2,32,0.00,,---,0.00,VWS V14.01,2013-03-05 22:49:00,
2013-03-05 16:50:00,66.4,37.2,30.15,North,360,7.2,11.2,34,0.00,,---,0.00,VWS V14.01,2013-03-05 22:50:00,
2013-03-05 16:54:00,67.4,37.3,30.14,NNW,346,11.2,15.2,33,0.00,,---,0.00,VWS V14.01,2013-03-05 22:54:00,
2013-03-05 16:55:00,66.1,35.4,30.15,North,349,8.2,15.2,32,0.00,,---,0.00,VWS V14.01,2013-03-05 22:55:00,
2013-03-05 16:59:00,67.4,38.8,30.14,NNW,338,7.2,12.2,35,0.00,,---,0.00,VWS V14.01,2013-03-05 22:59:00,
2013-03-05 17:00:00,66.1,35.4,30.16,North,349,7.2,13.2,32,0.00,,---,0.00,VWS V14.01,2013-03-05 23:00:00,
2013-03-05 17:04:00,67.4,38.1,30.14,North,360,5.2,14.2,34,0.00,,---,0.00,VWS V14.01,2013-03-05 23:04:00,
2013-03-05 17:05:00,66.0,34.5,30.16,North,355,7.2,13.2,31,0.00,,---,0.00,VWS V14.01,2013-03-05 23:05:00,
2013-03-05 17:09:00,67.6,39.7,30.14,NNW,340,9.2,14.2,36,0.00,,---,0.00,VWS V14.01,2013-03-05 23:09:00,
2013-03-05 17:10:00,66.0,35.3,30.16,NNE,17,10.2,13.2,32,0.00,,---,0.00,VWS V14.01,2013-03-05 23:10:00,
2013-03-05 17:14:00,67.6,41.1,30.14,NNW,348,12.2,12.2,38,0.00,,---,0.00,VWS V14.01,2013-03-05 23:14:00,
2013-03-05 17:15:00,66.0,34.5,30.16,North,349,7.2,14.2,31,0.00,,---,0.00,VWS V14.01,2013-03-05 23:15:00,
2013-03-05 17:19:00,67.8,36.1,30.15,NNE,17,7.2,12.2,31,0.00,,---,0.00,VWS V14.01,2013-03-05 23:19:00,
2013-03-05 17:20:00,65.8,34.3,30.16,North,355,11.2,16.2,31,0.00,,---,0.00,VWS V14.01,2013-03-05 23:20:00,
2013-03-05 17:24:00,68.1,34.7,30.15,NNW,348,7.2,18.2,29,0.00,,---,0.00,VWS V14.01,2013-03-05 23:24:00,
2013-03-05 17:25:00,65.6,34.2,30.16,NW,323,6.2,17.2,31,0.00,,---,0.00,VWS V14.01,2013-03-05 23:25:00,
2013-03-05 17:29:00,67.9,36.2,30.15,NNW,333,13.2,13.2,31,0.00,,---,0.00,VWS V14.01,2013-03-05 23:29:00,
2013-03-05 17:30:00,65.5,33.3,30.17,NNW,335,6.2,15.2,30,0.00,,---,0.00,VWS V14.01,2013-03-05 23:30:00,
2013-03-05 17:34:00,67.6,35.9,30.15,NNE,19,10.2,13.2,31,0.00,,---,0.00,VWS V14.01,2013-03-05 23:34:00,
2013-03-05 17:35:00,65.3,35.5,30.17,North,9,6.2,13.2,33,0.00,,---,0.00,VWS V14.01,2013-03-05 23:35:00,
2013-03-05 17:39:00,67.3,36.5,30.15,NNE,13,9.2,13.2,32,0.00,,---,0.00,VWS V14.01,2013-03-05 23:39:00,
2013-03-05 17:40:00,65.0,36.0,30.17,NNE,15,6.2,15.2,34,0.00,,---,0.00,VWS V14.01,2013-03-05 23:40:00,
2013-03-05 17:44:00,67.1,36.3,30.15,NNE,24,7.2,14.2,32,0.00,,---,0.00,VWS V14.01,2013-03-05 23:44:00,
2013-03-05 17:45:00,64.7,36.4,30.18,NW,321,7.2,12.2,35,0.00,,---,0.00,VWS V14.01,2013-03-05 23:45:00,
2013-03-05 17:49:00,66.8,37.6,30.15,NW,319,7.2,11.2,34,0.00,,---,0.00,VWS V14.01,2013-03-05 23:49:00,
2013-03-05 17:50:00,64.5,34.8,30.18,North,360,8.2,14.2,33,0.00,,---,0.00,VWS V14.01,2013-03-05 23:50:00,
2013-03-05 17:54:00,66.3,37.1,30.15,NNE,29,7.2,12.2,34,0.00,,---,0.00,VWS V14.01,2013-03-05 23:54:00,
2013-03-05 17:55:00,64.5,33.2,30.18,North,9,10.2,15.2,31,0.00,,---,0.00,VWS V14.01,2013-03-05 23:55:00,
2013-03-05 17:59:00,66.1,34.6,30.15,North,9,8.2,12.2,31,0.00,,---,0.00,VWS V14.01,2013-03-05 23:59:00,
2013-03-05 18:00:00,64.5,34.0,30.18,NNW,339,7.2,14.2,32,0.00,,---,0.00,VWS V14.01,2013-03-06 00:00:00,
2013-03-05 18:04:00,66.0,35.3,30.16,NNE,27,7.2,11.2,32,0.00,,---,0.00,VWS V14.01,2013-03-06 00:04:00,
2013-03-05 18:05:00,64.3,32.2,30.18,NNW,336,8.2,16.2,30,0.00,,---,0.00,VWS V14.01,2013-03-06 00:05:00,
2013-03-05 18:09:00,66.0,34.5,30.16,North,355,7.2,11.2,31,0.00,,---,0.00,VWS V14.01,2013-03-06 00:09:00,
2013-03-05 18:10:00,64.2,33.0,30.18,NNE,16,10.2,15.2,31,0.00,,---,0.00,VWS V14.01,2013-03-06 00:10:00,
2013-03-05 18:14:00,66.0,35.3,30.16,North,9,6.2,13.2,32,0.00,,---,0.00,VWS V14.01,2013-03-06 00:14:00,
2013-03-05 18:15:00,63.9,35.0,30.18,NNE,17,7.2,13.2,34,0.00,,---,0.00,VWS V14.01,2013-03-06 00:15:00,
2013-03-05 18:19:00,65.8,34.3,30.16,NNW,346,7.2,16.2,31,0.00,,---,0.00,VWS V14.01,2013-03-06 00:19:00,
2013-03-05 18:20:00,63.5,33.9,30.18,NNE,14,11.2,16.2,33,0.00,,---,0.00,VWS V14.01,2013-03-06 00:20:00,
2013-03-05 18:24:00,65.6,34.2,30.16,NNE,15,7.2,17.2,31,0.00,,---,0.00,VWS V14.01,2013-03-06 00:24:00,
2013-03-05 18:25:00,63.4,33.0,30.18,NNE,13,7.2,14.2,32,0.00,,---,0.00,VWS V14.01,2013-03-06 00:25:00,
2013-03-05 18:29:00,65.5,34.1,30.16,North,355,10.2,15.2,31,0.00,,---,0.00,VWS V14.01,2013-03-06 00:29:00,
2013-03-05 18:30:00,63.2,33.7,30.18,NNW,340,10.2,14.2,33,0.00,,---,0.00,VWS V14.01,2013-03-06 00:30:00,
2013-03-05 18:34:00,65.3,33.9,30.17,NNW,329,6.2,13.2,31,0.00,,---,0.00,VWS V14.01,2013-03-06 00:34:00,
2013-03-05 18:35:00,63.1,34.3,30.18,North,355,5.2,14.2,34,0.00,,---,0.00,VWS V14.01,2013-03-06 00:35:00,
2013-03-05 18:39:00,65.0,36.0,30.17,North,350,5.2,15.2,34,0.00,,---,0.00,VWS V14.01,2013-03-06 00:39:00,
2013-03-05 18:40:00,62.7,34.7,30.18,NNE,19,6.2,12.2,35,0.00,,---,0.00,VWS V14.01,2013-03-06 00:40:00,
2013-03-05 18:44:00,64.7,37.2,30.17,NNW,338,6.2,11.2,36,0.00,,---,0.00,VWS V14.01,2013-03-06 00:44:00,
2013-03-05 18:45:00,62.4,35.1,30.19,North,355,6.2,10.2,36,0.00,,---,0.00,VWS V14.01,2013-03-06 00:45:00,
2013-03-05 18:49:00,64.5,35.5,30.17,North,355,6.2,12.2,34,0.00,,---,0.00,VWS V14.01,2013-03-06 00:49:00,
2013-03-05 18:50:00,62.3,35.0,30.19,North,5,6.2,11.2,36,0.00,,---,0.00,VWS V14.01,2013-03-06 00:50:00,
2013-03-05 18:54:00,64.5,34.8,30.17,NNW,345,11.2,12.2,33,0.00,,---,0.00,VWS V14.01,2013-03-06 00:54:00,
2013-03-05 18:55:00,62.0,35.5,30.19,NNW,348,4.2,9.2,37,0.00,,---,0.00,VWS V14.01,2013-03-06 00:55:00,
2013-03-05 18:59:00,64.7,34.2,30.17,North,355,11.2,13.2,32,0.00,,---,0.00,VWS V14.01,2013-03-06 00:59:00,
2013-03-05 19:00:00,61.8,36.6,30.19,NNW,327,10.2,10.2,39,0.00,,---,0.00,VWS V14.01,2013-03-06 01:00:00,
2013-03-05 19:04:00,64.5,33.2,30.18,North,360,5.2,16.2,31,0.00,,---,0.00,VWS V14.01,2013-03-06 01:04:00,
2013-03-05 19:05:00,61.6,35.8,30.19,North,5,4.2,12.2,38,0.00,,---,0.00,VWS V14.01,2013-03-06 01:05:00,
2013-03-05 19:09:00,64.2,33.0,30.18,North,5,5.2,12.2,31,0.00,,---,0.00,VWS V14.01,2013-03-06 01:09:00,
2013-03-05 19:10:00,61.5,35.7,30.19,North,355,6.2,7.2,38,0.00,,---,0.00,VWS V14.01,2013-03-06 01:10:00,
2013-03-05 19:14:00,63.9,34.3,30.18,NNE,19,13.2,13.2,33,0.00,,---,0.00,VWS V14.01,2013-03-06 01:14:00,
2013-03-05 19:15:00,61.3,36.2,30.20,North,5,3.2,7.2,39,0.00,,---,0.00,VWS V14.01,2013-03-06 01:15:00,
2013-03-05 19:19:00,63.5,34.7,30.18,NNE,26,5.2,12.2,34,0.00,,---,0.00,VWS V14.01,2013-03-06 01:19:00,
2013-03-05 19:20:00,61.0,35.9,30.20,North,360,3.2,8.2,39,0.00,,---,0.00,VWS V14.01,2013-03-06 01:20:00,
2013-03-05 19:24:00,63.4,33.8,30.18,NW,324,6.2,14.2,33,0.00,,---,0.00,VWS V14.01,2013-03-06 01:24:00,
2013-03-05 19:25:00,61.0,36.5,30.20,North,360,3.2,8.2,40,0.00,,---,0.00,VWS V14.01,2013-03-06 01:25:00,
2013-03-05 19:29:00,63.2,33.6,30.18,North,360,7.2,12.2,33,0.00,,---,0.00,VWS V14.01,2013-03-06 01:29:00,
2013-03-05 19:30:00,60.9,36.4,30.20,North,360,4.2,10.2,40,0.00,,---,0.00,VWS V14.01,2013-03-06 01:30:00,
2013-03-05 19:34:00,63.2,33.6,30.18,North,5,10.2,11.2,33,0.00,,---,0.00,VWS V14.01,2013-03-06 01:34:00,
2013-03-05 19:35:00,60.9,36.4,30.20,NNE,30,4.2,13.2,40,0.00,,---,0.00,VWS V14.01,2013-03-06 01:35:00,
2013-03-05 19:39:00,62.9,34.8,30.18,NNW,332,7.2,12.2,35,0.00,,---,0.00,VWS V14.01,2013-03-06 01:39:00,
2013-03-05 19:40:00,60.9,35.2,30.20,North,355,4.2,11.2,38,0.00,,---,0.00,VWS V14.01,2013-03-06 01:40:00,
2013-03-05 19:44:00,62.6,35.3,30.18,North,360,4.2,8.2,36,0.00,,---,0.00,VWS V14.01,2013-03-06 01:44:00,
2013-03-05 19:45:00,60.7,35.6,30.21,North,5,6.2,10.2,39,0.00,,---,0.00,VWS V14.01,2013-03-06 01:45:00,
2013-03-05 19:49:00,62.3,35.0,30.19,North,360,6.2,10.2,36,0.00,,---,0.00,VWS V14.01,2013-03-06 01:49:00,
2013-03-05 19:50:00,60.5,36.7,30.21,NNE,17,13.2,13.2,41,0.00,,---,0.00,VWS V14.01,2013-03-06 01:50:00,
2013-03-05 19:54:00,62.1,34.8,30.19,NNW,345,7.2,8.2,36,0.00,,---,0.00,VWS V14.01,2013-03-06 01:54:00,
2013-03-05 19:55:00,60.5,35.4,30.21,NNW,339,7.2,13.2,39,0.00,,---,0.00,VWS V14.01,2013-03-06 01:55:00,
2013-03-05 19:59:00,62.0,36.1,30.19,North,355,4.2,10.2,38,0.00,,---,0.00,VWS V14.01,2013-03-06 01:59:00,
2013-03-05 20:00:00,60.5,33.4,30.21,NNE,24,8.2,13.2,36,0.00,,---,0.00,VWS V14.01,2013-03-06 02:00:00,
2013-03-05 20:04:00,61.8,36.0,30.19,North,360,5.2,12.2,38,0.00,,---,0.00,VWS V14.01,2013-03-06 02:04:00,
2013-03-05 20:05:00,60.7,32.2,30.21,NNE,24,7.2,13.2,34,0.00,,---,0.00,VWS V14.01,2013-03-06 02:05:00,
2013-03-05 20:09:00,61.6,35.8,30.19,North,10,5.2,6.2,38,0.00,,---,0.00,VWS V14.01,2013-03-06 02:09:00,
2013-03-05 20:10:00,60.4,31.9,30.21,NE,38,8.2,10.2,34,0.00,,---,0.00,VWS V14.01,2013-03-06 02:10:00,
2013-03-05 20:14:00,61.3,35.5,30.19,North,9,7.2,7.2,38,0.00,,---,0.00,VWS V14.01,2013-03-06 02:14:00,
2013-03-05 20:15:00,60.2,32.5,30.21,NNE,32,7.2,14.2,35,0.00,,---,0.00,VWS V14.01,2013-03-06 02:15:00,
2013-03-05 20:19:00,61.2,36.1,30.20,North,360,6.2,8.2,39,0.00,,---,0.00,VWS V14.01,2013-03-06 02:19:00,
2013-03-05 20:20:00,59.9,32.9,30.21,North,5,5.2,11.2,36,0.00,,---,0.00,VWS V14.01,2013-03-06 02:20:00,
2013-03-05 20:24:00,61.0,36.5,30.20,NNW,338,6.2,8.2,40,0.00,,---,0.00,VWS V14.01,2013-03-06 02:24:00,
2013-03-05 20:25:00,59.8,33.5,30.21,NNE,24,11.2,14.2,37,0.00,,---,0.00,VWS V14.01,2013-03-06 02:25:00,
2013-03-05 20:29:00,60.9,36.4,30.20,North,350,5.2,10.2,40,0.00,,---,0.00,VWS V14.01,2013-03-06 02:29:00,
2013-03-05 20:30:00,59.8,33.5,30.21,North,5,6.2,16.2,37,0.00,,---,0.00,VWS V14.01,2013-03-06 02:30:00,
2013-03-05 20:34:00,60.9,36.4,30.20,North,5,4.2,10.2,40,0.00,,---,0.00,VWS V14.01,2013-03-06 02:34:00,
2013-03-05 20:35:00,59.6,34.0,30.21,North,11,7.2,14.2,38,0.00,,---,0.00,VWS V14.01,2013-03-06 02:35:00,
2013-03-05 20:39:00,60.9,35.8,30.20,North,355,10.2,11.2,39,0.00,,---,0.00,VWS V14.01,2013-03-06 02:39:00,
2013-03-05 20:40:00,59.3,34.4,30.21,North,349,13.2,13.2,39,0.00,,---,0.00,VWS V14.01,2013-03-06 02:40:00,
2013-03-05 20:44:00,60.9,35.8,30.20,NNE,13,8.2,10.2,39,0.00,,---,0.00,VWS V14.01,2013-03-06 02:44:00,
2013-03-05 20:45:00,59.2,34.9,30.22,North,5,6.2,13.2,40,0.00,,---,0.00,VWS V14.01,2013-03-06 02:45:00,
2013-03-05 20:49:00,60.7,36.3,30.21,NE,41,8.2,12.2,40,0.00,,---,0.00,VWS V14.01,2013-03-06 02:49:00,
2013-03-05 20:50:00,59.0,35.3,30.22,North,360,13.2,13.2,41,0.00,,---,0.00,VWS V14.01,2013-03-06 02:50:00,
2013-03-05 20:54:00,60.5,35.4,30.21,NE,34,6.2,13.2,39,0.00,,---,0.00,VWS V14.01,2013-03-06 02:54:00,
2013-03-05 20:55:00,59.2,34.9,30.22,NNE,25,7.2,14.2,40,0.00,,---,0.00,VWS V14.01,2013-03-06 02:55:00,
2013-03-05 20:59:00,60.5,34.8,30.21,NNE,25,9.2,11.2,38,0.00,,---,0.00,VWS V14.01,2013-03-06 02:59:00,
2013-03-05 21:00:00,59.2,34.3,30.23,NE,36,10.2,12.2,39,0.00,,---,0.00,VWS V14.01,2013-03-06 03:00:00,
2013-03-05 21:04:00,60.7,32.2,30.21,NE,41,6.2,13.2,34,0.00,,---,0.00,VWS V14.01,2013-03-06 03:04:00,
2013-03-05 21:05:00,59.2,34.3,30.23,North,11,7.2,13.2,39,0.00,,---,0.00,VWS V14.01,2013-03-06 03:05:00,
2013-03-05 21:08:00,60.5,32.0,30.21,NE,36,4.2,10.2,34,0.00,,---,0.00,VWS V14.01,2013-03-06 03:08:00,
2013-03-05 21:10:00,59.0,34.7,30.23,NNE,32,5.2,13.2,40,0.00,,---,0.00,VWS V14.01,2013-03-06 03:10:00,
2013-03-05 21:13:00,60.4,32.7,30.21,North,10,8.2,14.2,35,0.00,,---,0.00,VWS V14.01,2013-03-06 03:13:00,
2013-03-05 21:15:00,58.9,34.6,30.23,North,5,6.2,10.2,40,0.00,,---,0.00,VWS V14.01,2013-03-06 03:15:00,
2013-03-05 21:19:00,59.9,32.9,30.21,North,350,6.2,10.2,36,0.00,,---,0.00,VWS V14.01,2013-03-06 03:19:00,
2013-03-05 21:20:00,58.9,34.6,30.23,North,10,9.2,14.2,40,0.00,,---,0.00,VWS V14.01,2013-03-06 03:20:00,
2013-03-05 21:23:00,59.8,33.5,30.21,North,10,6.2,12.2,37,0.00,,---,0.00,VWS V14.01,2013-03-06 03:23:00,
2013-03-05 21:25:00,58.7,35.1,30.23,NE,39,7.2,13.2,41,0.00,,---,0.00,VWS V14.01,2013-03-06 03:25:00,
2013-03-05 21:28:00,59.9,33.6,30.21,NNE,18,10.2,16.2,37,0.00,,---,0.00,VWS V14.01,2013-03-06 03:28:00,
2013-03-05 21:30:00,58.6,35.6,30.23,NE,34,14.2,14.2,42,0.00,,---,0.00,VWS V14.01,2013-03-06 03:30:00,
2013-03-05 21:33:00,59.6,33.3,30.21,NNE,24,10.2,14.2,37,0.00,,---,0.00,VWS V14.01,2013-03-06 03:33:00,
2013-03-05 21:35:00,58.4,34.2,30.23,North,5,8.2,14.2,40,0.00,,---,0.00,VWS V14.01,2013-03-06 03:35:00,
2013-03-05 21:38:00,59.5,33.9,30.21,NNE,24,5.2,11.2,38,0.00,,---,0.00,VWS V14.01,2013-03-06 03:38:00,
2013-03-05 21:40:00,58.6,33.7,30.23,NNE,13,5.2,15.2,39,0.00,,---,0.00,VWS V14.01,2013-03-06 03:40:00,
2013-03-05 21:43:00,59.3,35.0,30.21,North,10,3.2,13.2,40,0.00,,---,0.00,VWS V14.01,2013-03-06 03:43:00,
2013-03-05 21:45:00,58.6,33.1,30.24,North,355,10.2,14.2,38,0.00,,---,0.00,VWS V14.01,2013-03-06 03:45:00,
2013-03-05 21:48:00,59.2,35.5,30.22,North,9,6.2,10.2,41,0.00,,---,0.00,VWS V14.01,2013-03-06 03:48:00,
2013-03-05 21:50:00,58.7,32.5,30.24,NE,41,12.2,14.2,37,0.00,,---,0.00,VWS V14.01,2013-03-06 03:50:00,
2013-03-05 21:53:00,59.2,34.9,30.22,North,9,6.2,14.2,40,0.00,,---,0.00,VWS V14.01,2013-03-06 03:53:00,
2013-03-05 21:55:00,58.7,31.8,30.24,NE,34,7.2,16.2,36,0.00,,---,0.00,VWS V14.01,2013-03-06 03:55:00,
2013-03-05 21:58:00,59.2,34.9,30.22,North,5,6.2,12.2,40,0.00,,---,0.00,VWS V14.01,2013-03-06 03:58:00,
2013-03-05 22:00:00,58.6,31.8,30.24,NNE,27,11.2,15.2,36,0.00,,---,0.00,VWS V14.01,2013-03-06 04:00:00,
2013-03-05 22:03:00,59.2,34.3,30.23,NNW,340,5.2,13.2,39,0.00,,---,0.00,VWS V14.01,2013-03-06 04:03:00,
2013-03-05 22:05:00,58.3,32.8,30.24,NNE,14,8.2,13.2,38,0.00,,---,0.00,VWS V14.01,2013-03-06 04:05:00,
2013-03-05 22:08:00,59.0,34.7,30.23,North,11,6.2,10.2,40,0.00,,---,0.00,VWS V14.01,2013-03-06 04:08:00,
2013-03-05 22:10:00,58.3,34.1,30.24,North,9,5.2,14.2,40,0.00,,---,0.00,VWS V14.01,2013-03-06 04:10:00,
2013-03-05 22:13:00,58.9,34.6,30.23,North,10,10.2,10.2,40,0.00,,---,0.00,VWS V14.01,2013-03-06 04:13:00,
2013-03-05 22:15:00,58.0,33.2,30.24,NNE,12,7.2,15.2,39,0.00,,---,0.00,VWS V14.01,2013-03-06 04:15:00,
2013-03-05 22:18:00,58.9,34.6,30.23,NNE,13,5.2,14.2,40,0.00,,---,0.00,VWS V14.01,2013-03-06 04:18:00,
2013-03-05 22:20:00,58.0,32.6,30.24,NNE,30,8.2,18.2,38,0.00,,---,0.00,VWS V14.01,2013-03-06 04:20:00,
2013-03-05 22:23:00,58.9,35.3,30.23,North,5,7.2,12.2,41,0.00,,---,0.00,VWS V14.01,2013-03-06 04:23:00,
2013-03-05 22:25:00,58.0,32.6,30.24,NE,48,7.2,15.2,38,0.00,,---,0.00,VWS V14.01,2013-03-06 04:25:00,
2013-03-05 22:28:00,58.6,35.6,30.23,North,9,8.2,13.2,42,0.00,,---,0.00,VWS V14.01,2013-03-06 04:28:00,
2013-03-05 22:30:00,57.6,32.2,30.24,NNE,25,12.2,15.2,38,0.00,,---,0.00,VWS V14.01,2013-03-06 04:30:00,
2013-03-05 22:33:00,58.4,34.8,30.23,NNE,25,5.2,14.2,41,0.00,,---,0.00,VWS V14.01,2013-03-06 04:33:00,
2013-03-05 22:35:00,57.5,32.8,30.24,NNW,330,10.2,14.2,39,0.00,,---,0.00,VWS V14.01,2013-03-06 04:35:00,
2013-03-05 22:38:00,58.4,34.2,30.23,North,360,7.2,14.2,40,0.00,,---,0.00,VWS V14.01,2013-03-06 04:38:00,
2013-03-05 22:40:00,57.3,32.6,30.24,North,5,12.2,13.2,39,0.00,,---,0.00,VWS V14.01,2013-03-06 04:40:00,
2013-03-05 22:43:00,58.6,33.1,30.23,NNE,20,4.2,14.2,38,0.00,,---,0.00,VWS V14.01,2013-03-06 04:43:00,
2013-03-05 22:45:00,57.3,31.9,30.24,NNE,32,12.2,16.2,38,0.00,,---,0.00,VWS V14.01,2013-03-06 04:45:00,
2013-03-05 22:48:00,58.6,32.4,30.24,NNE,22,11.2,13.2,37,0.00,,---,0.00,VWS V14.01,2013-03-06 04:48:00,
2013-03-05 22:50:00,57.0,32.3,30.24,NNE,16,12.2,18.2,39,0.00,,---,0.00,VWS V14.01,2013-03-06 04:50:00,
2013-03-05 22:53:00,58.7,31.8,30.24,NNW,339,7.2,16.2,36,0.00,,---,0.00,VWS V14.01,2013-03-06 04:53:00,
2013-03-05 22:55:00,57.0,31.7,30.24,NNE,13,11.2,19.2,38,0.00,,---,0.00,VWS V14.01,2013-03-06 04:55:00,
2013-03-05 22:59:00,58.6,31.8,30.24,North,11,7.2,12.2,36,0.00,,---,0.00,VWS V14.01,2013-03-06 04:59:00,
2013-03-05 23:00:00,58.6,31.8,30.24,NNW,346,12.2,14.2,36,0.00,,---,0.00,VWS V14.01,2013-03-06 05:00:00,
2013-03-05 23:05:00,58.4,32.9,30.24,North,9,13.2,13.2,38,0.00,,---,0.00,VWS V14.01,2013-03-06 05:05:00,
2013-03-05 23:10:00,58.3,34.1,30.24,NNE,24,10.2,14.2,40,0.00,,---,0.00,VWS V14.01,2013-03-06 05:10:00,
2013-03-05 23:15:00,58.1,33.3,30.24,North,10,8.2,15.2,39,0.00,,---,0.00,VWS V14.01,2013-03-06 05:15:00,
2013-03-05 23:20:00,58.0,33.2,30.24,North,10,8.2,18.2,39,0.00,,---,0.00,VWS V14.01,2013-03-06 05:20:00,
2013-03-05 23:25:00,58.0,32.6,30.24,NNE,20,15.2,15.2,38,0.00,,---,0.00,VWS V14.01,2013-03-06 05:25:00,
2013-03-05 23:30:00,57.6,32.2,30.24,NNE,18,9.2,15.2,38,0.00,,---,0.00,VWS V14.01,2013-03-06 05:30:00,
2013-03-05 23:35:00,57.5,32.8,30.24,NNE,14,6.2,14.2,39,0.00,,---,0.00,VWS V14.01,2013-03-06 05:35:00,
2013-03-05 23:40:00,57.3,33.2,30.24,North,355,7.2,13.2,40,0.00,,---,0.00,VWS V14.01,2013-03-06 05:40:00,
2013-03-05 23:45:00,57.3,31.9,30.24,NNE,17,7.2,16.2,38,0.00,,---,0.00,VWS V14.01,2013-03-06 05:45:00,
2013-03-05 23:50:00,57.2,32.5,30.24,NNW,346,6.2,16.2,39,0.00,,---,0.00,VWS V14.01,2013-03-06 05:50:00,
2013-03-05 23:55:00,57.0,31.7,30.24,NE,36,14.2,19.2,38,0.00,,---,0.00,VWS V14.01,2013-03-06 05:55:00,